sensor_id;sensor_type;location;lat;lon;timestamp;temperature;humidity
30694;DHT22;17446;48.022;-1.740;2024-02-26T00:01:28;10.50;99.90
30694;DHT22;17446;48.022;-1.740;2024-02-26T00:03:56;10.40;99.90
30694;DHT22;17446;48.022;-1.740;2024-02-26T00:06:25;10.40;99.90
30694;DHT22;17446;48.022;-1.740;2024-02-26T00:08:50;10.40;99.90
30694;DHT22;17446;48.022;-1.740;2024-02-26T00:11:16;10.50;99.90
30694;DHT22;17446;48.022;-1.740;2024-02-26T00:13:41;10.50;99.90
30694;DHT22;17446;48.022;-1.740;2024-02-26T00:16:07;10.50;99.90
30694;DHT22;17446;48.022;-1.740;2024-02-26T00:18:33;10.50;99.90
30694;DHT22;17446;48.022;-1.740;2024-02-26T00:20:59;10.50;99.90
30694;DHT22;17446;48.022;-1.740;2024-02-26T00:23:26;10.50;99.90
30694;DHT22;17446;48.022;-1.740;2024-02-26T00:25:52;10.50;99.90
30694;DHT22;17446;48.022;-1.740;2024-02-26T00:28:17;10.50;99.90
30694;DHT22;17446;48.022;-1.740;2024-02-26T00:30:45;10.60;99.90
30694;DHT22;17446;48.022;-1.740;2024-02-26T00:33:11;10.60;99.90
30694;DHT22;17446;48.022;-1.740;2024-02-26T00:35:36;10.50;99.90
30694;DHT22;17446;48.022;-1.740;2024-02-26T00:38:02;10.60;99.90
30694;DHT22;17446;48.022;-1.740;2024-02-26T00:40:28;10.60;99.90
30694;DHT22;17446;48.022;-1.740;2024-02-26T00:42:54;10.60;99.90
30694;DHT22;17446;48.022;-1.740;2024-02-26T00:45:20;10.60;99.90
30694;DHT22;17446;48.022;-1.740;2024-02-26T00:47:45;10.60;99.90
30694;DHT22;17446;48.022;-1.740;2024-02-26T00:50:12;10.60;99.90
30694;DHT22;17446;48.022;-1.740;2024-02-26T00:52:38;10.60;99.90
30694;DHT22;17446;48.022;-1.740;2024-02-26T00:55:04;10.60;99.90
30694;DHT22;17446;48.022;-1.740;2024-02-26T00:57:30;10.60;99.90
30694;DHT22;17446;48.022;-1.740;2024-02-26T00:59:55;10.60;99.90
30694;DHT22;17446;48.022;-1.740;2024-02-26T01:02:22;10.60;99.90
30694;DHT22;17446;48.022;-1.740;2024-02-26T01:04:48;10.60;99.90
30694;DHT22;17446;48.022;-1.740;2024-02-26T01:07:13;10.60;99.90
30694;DHT22;17446;48.022;-1.740;2024-02-26T01:09:39;10.50;99.90
30694;DHT22;17446;48.022;-1.740;2024-02-26T01:12:04;10.50;99.90
30694;DHT22;17446;48.022;-1.740;2024-02-26T01:14:31;10.50;99.90
30694;DHT22;17446;48.022;-1.740;2024-02-26T01:16:56;10.50;99.90
30694;DHT22;17446;48.022;-1.740;2024-02-26T01:19:22;10.50;99.90
30694;DHT22;17446;48.022;-1.740;2024-02-26T01:21:48;10.50;99.90
30694;DHT22;17446;48.022;-1.740;2024-02-26T01:24:13;10.50;99.90
30694;DHT22;17446;48.022;-1.740;2024-02-26T01:26:39;10.50;99.90
30694;DHT22;17446;48.022;-1.740;2024-02-26T01:29:05;10.50;99.90
30694;DHT22;17446;48.022;-1.740;2024-02-26T01:31:30;10.50;99.90
30694;DHT22;17446;48.022;-1.740;2024-02-26T01:33:56;10.60;99.90
30694;DHT22;17446;48.022;-1.740;2024-02-26T01:36:22;10.50;99.90
30694;DHT22;17446;48.022;-1.740;2024-02-26T01:38:47;10.60;99.90
30694;DHT22;17446;48.022;-1.740;2024-02-26T01:41:16;10.60;99.90
30694;DHT22;17446;48.022;-1.740;2024-02-26T01:43:42;10.60;99.90
30694;DHT22;17446;48.022;-1.740;2024-02-26T01:46:11;10.60;99.90
30694;DHT22;17446;48.022;-1.740;2024-02-26T01:48:42;10.60;99.90
30694;DHT22;17446;48.022;-1.740;2024-02-26T01:51:09;10.60;99.90
30694;DHT22;17446;48.022;-1.740;2024-02-26T01:53:35;10.60;99.90
30694;DHT22;17446;48.022;-1.740;2024-02-26T01:56:01;10.60;99.90
30694;DHT22;17446;48.022;-1.740;2024-02-26T01:58:29;10.60;99.90
30694;DHT22;17446;48.022;-1.740;2024-02-26T02:00:56;10.60;99.90
30694;DHT22;17446;48.022;-1.740;2024-02-26T02:03:22;10.60;99.90
30694;DHT22;17446;48.022;-1.740;2024-02-26T02:05:47;10.60;99.90
30694;DHT22;17446;48.022;-1.740;2024-02-26T02:08:13;10.60;99.90
30694;DHT22;17446;48.022;-1.740;2024-02-26T02:10:41;10.60;99.90
30694;DHT22;17446;48.022;-1.740;2024-02-26T02:13:07;10.60;99.90
30694;DHT22;17446;48.022;-1.740;2024-02-26T02:15:33;10.60;99.90
30694;DHT22;17446;48.022;-1.740;2024-02-26T02:17:59;10.60;99.90
30694;DHT22;17446;48.022;-1.740;2024-02-26T02:20:32;10.60;99.90
30694;DHT22;17446;48.022;-1.740;2024-02-26T02:22:58;10.60;99.90
30694;DHT22;17446;48.022;-1.740;2024-02-26T02:25:24;10.60;99.90
30694;DHT22;17446;48.022;-1.740;2024-02-26T02:27:50;10.60;99.90
30694;DHT22;17446;48.022;-1.740;2024-02-26T02:30:16;10.60;99.90
30694;DHT22;17446;48.022;-1.740;2024-02-26T02:32:42;10.60;99.90
30694;DHT22;17446;48.022;-1.740;2024-02-26T02:35:08;10.60;99.90
30694;DHT22;17446;48.022;-1.740;2024-02-26T02:37:34;10.60;99.90
30694;DHT22;17446;48.022;-1.740;2024-02-26T02:39:59;10.60;99.90
30694;DHT22;17446;48.022;-1.740;2024-02-26T02:42:26;10.60;99.90
30694;DHT22;17446;48.022;-1.740;2024-02-26T02:44:51;10.50;99.90
30694;DHT22;17446;48.022;-1.740;2024-02-26T02:47:17;10.50;99.90
30694;DHT22;17446;48.022;-1.740;2024-02-26T02:49:42;10.60;99.90
30694;DHT22;17446;48.022;-1.740;2024-02-26T02:52:08;10.50;99.90
30694;DHT22;17446;48.022;-1.740;2024-02-26T02:54:33;10.60;99.90
30694;DHT22;17446;48.022;-1.740;2024-02-26T02:56:59;10.60;99.90
30694;DHT22;17446;48.022;-1.740;2024-02-26T02:59:25;10.60;99.90
30694;DHT22;17446;48.022;-1.740;2024-02-26T03:01:51;10.50;99.90
30694;DHT22;17446;48.022;-1.740;2024-02-26T03:04:17;10.50;99.90
30694;DHT22;17446;48.022;-1.740;2024-02-26T03:06:43;10.50;99.90
30694;DHT22;17446;48.022;-1.740;2024-02-26T03:09:08;10.50;99.90
30694;DHT22;17446;48.022;-1.740;2024-02-26T03:11:34;10.50;99.90
30694;DHT22;17446;48.022;-1.740;2024-02-26T03:14:00;10.50;99.90
30694;DHT22;17446;48.022;-1.740;2024-02-26T03:16:25;10.50;99.90
30694;DHT22;17446;48.022;-1.740;2024-02-26T03:18:51;10.60;99.90
30694;DHT22;17446;48.022;-1.740;2024-02-26T03:21:17;10.60;99.90
30694;DHT22;17446;48.022;-1.740;2024-02-26T03:23:43;10.60;99.90
30694;DHT22;17446;48.022;-1.740;2024-02-26T03:26:09;10.60;99.90
30694;DHT22;17446;48.022;-1.740;2024-02-26T03:28:39;10.60;99.90
30694;DHT22;17446;48.022;-1.740;2024-02-26T03:31:04;10.60;99.90
30694;DHT22;17446;48.022;-1.740;2024-02-26T03:33:30;10.60;99.90
30694;DHT22;17446;48.022;-1.740;2024-02-26T03:35:55;10.60;99.90
30694;DHT22;17446;48.022;-1.740;2024-02-26T03:38:21;10.60;99.90
30694;DHT22;17446;48.022;-1.740;2024-02-26T03:40:47;10.70;99.90
30694;DHT22;17446;48.022;-1.740;2024-02-26T03:43:13;10.70;99.90
30694;DHT22;17446;48.022;-1.740;2024-02-26T03:45:39;10.70;99.90
30694;DHT22;17446;48.022;-1.740;2024-02-26T03:48:05;10.70;99.90
30694;DHT22;17446;48.022;-1.740;2024-02-26T03:50:30;10.70;99.90
30694;DHT22;17446;48.022;-1.740;2024-02-26T03:52:56;10.70;99.90
30694;DHT22;17446;48.022;-1.740;2024-02-26T03:55:22;10.70;99.90
30694;DHT22;17446;48.022;-1.740;2024-02-26T03:57:51;10.70;99.90
30694;DHT22;17446;48.022;-1.740;2024-02-26T04:00:16;10.70;99.90
30694;DHT22;17446;48.022;-1.740;2024-02-26T04:02:42;10.70;99.90
30694;DHT22;17446;48.022;-1.740;2024-02-26T04:05:11;10.80;99.90
30694;DHT22;17446;48.022;-1.740;2024-02-26T04:07:37;10.70;99.90
30694;DHT22;17446;48.022;-1.740;2024-02-26T04:10:03;10.70;99.90
30694;DHT22;17446;48.022;-1.740;2024-02-26T04:12:30;10.60;99.90
30694;DHT22;17446;48.022;-1.740;2024-02-26T04:14:56;10.60;99.90
30694;DHT22;17446;48.022;-1.740;2024-02-26T04:17:21;10.60;99.90
30694;DHT22;17446;48.022;-1.740;2024-02-26T04:19:47;10.60;99.90
30694;DHT22;17446;48.022;-1.740;2024-02-26T04:22:12;10.60;99.90
30694;DHT22;17446;48.022;-1.740;2024-02-26T04:24:38;10.60;99.90
30694;DHT22;17446;48.022;-1.740;2024-02-26T04:27:04;10.50;99.90
30694;DHT22;17446;48.022;-1.740;2024-02-26T04:29:29;10.50;99.90
30694;DHT22;17446;48.022;-1.740;2024-02-26T04:31:55;10.50;99.90
30694;DHT22;17446;48.022;-1.740;2024-02-26T04:34:21;10.50;99.90
30694;DHT22;17446;48.022;-1.740;2024-02-26T04:36:46;10.40;99.90
30694;DHT22;17446;48.022;-1.740;2024-02-26T04:39:13;10.40;99.90
30694;DHT22;17446;48.022;-1.740;2024-02-26T04:41:39;10.30;99.90
30694;DHT22;17446;48.022;-1.740;2024-02-26T04:44:05;10.30;99.90
30694;DHT22;17446;48.022;-1.740;2024-02-26T04:46:30;10.30;99.90
30694;DHT22;17446;48.022;-1.740;2024-02-26T04:48:56;10.20;99.90
30694;DHT22;17446;48.022;-1.740;2024-02-26T04:51:21;10.20;99.90
30694;DHT22;17446;48.022;-1.740;2024-02-26T04:53:47;10.20;99.90
30694;DHT22;17446;48.022;-1.740;2024-02-26T04:56:13;10.10;99.90
30694;DHT22;17446;48.022;-1.740;2024-02-26T04:58:38;10.10;99.90
30694;DHT22;17446;48.022;-1.740;2024-02-26T05:01:05;10.10;99.90
30694;DHT22;17446;48.022;-1.740;2024-02-26T05:03:30;10.20;99.90
30694;DHT22;17446;48.022;-1.740;2024-02-26T05:05:56;10.20;99.90
30694;DHT22;17446;48.022;-1.740;2024-02-26T05:08:23;10.10;99.90
30694;DHT22;17446;48.022;-1.740;2024-02-26T05:10:49;10.10;99.90
30694;DHT22;17446;48.022;-1.740;2024-02-26T05:13:14;10.10;99.90
30694;DHT22;17446;48.022;-1.740;2024-02-26T05:15:41;10.10;99.90
30694;DHT22;17446;48.022;-1.740;2024-02-26T05:18:07;10.00;99.90
30694;DHT22;17446;48.022;-1.740;2024-02-26T05:20:33;10.00;99.90
30694;DHT22;17446;48.022;-1.740;2024-02-26T05:23:01;10.00;99.90
30694;DHT22;17446;48.022;-1.740;2024-02-26T05:25:27;9.90;99.90
30694;DHT22;17446;48.022;-1.740;2024-02-26T05:27:52;9.90;99.90
30694;DHT22;17446;48.022;-1.740;2024-02-26T05:30:18;9.90;99.90
30694;DHT22;17446;48.022;-1.740;2024-02-26T05:32:44;9.90;99.90
30694;DHT22;17446;48.022;-1.740;2024-02-26T05:35:09;9.80;99.90
30694;DHT22;17446;48.022;-1.740;2024-02-26T05:37:35;9.80;99.90
30694;DHT22;17446;48.022;-1.740;2024-02-26T05:40:01;9.80;99.90
30694;DHT22;17446;48.022;-1.740;2024-02-26T05:42:26;9.80;99.90
30694;DHT22;17446;48.022;-1.740;2024-02-26T05:44:52;9.80;99.90
30694;DHT22;17446;48.022;-1.740;2024-02-26T05:47:18;9.80;99.90
30694;DHT22;17446;48.022;-1.740;2024-02-26T05:49:43;9.80;99.90
30694;DHT22;17446;48.022;-1.740;2024-02-26T05:52:09;9.80;99.90
30694;DHT22;17446;48.022;-1.740;2024-02-26T05:54:35;9.80;99.90
30694;DHT22;17446;48.022;-1.740;2024-02-26T05:57:01;9.80;99.90
30694;DHT22;17446;48.022;-1.740;2024-02-26T05:59:26;9.70;99.90
30694;DHT22;17446;48.022;-1.740;2024-02-26T06:01:52;9.70;99.90
30694;DHT22;17446;48.022;-1.740;2024-02-26T06:04:18;9.80;99.90
30694;DHT22;17446;48.022;-1.740;2024-02-26T06:06:46;9.80;99.90
30694;DHT22;17446;48.022;-1.740;2024-02-26T06:09:12;9.80;99.90
30694;DHT22;17446;48.022;-1.740;2024-02-26T06:11:38;9.70;99.90
30694;DHT22;17446;48.022;-1.740;2024-02-26T06:14:04;9.70;99.90
30694;DHT22;17446;48.022;-1.740;2024-02-26T06:16:29;9.60;99.90
30694;DHT22;17446;48.022;-1.740;2024-02-26T06:18:55;9.60;99.90
30694;DHT22;17446;48.022;-1.740;2024-02-26T06:21:22;9.60;99.90
30694;DHT22;17446;48.022;-1.740;2024-02-26T06:23:47;9.60;99.90
30694;DHT22;17446;48.022;-1.740;2024-02-26T06:26:13;9.60;99.90
30694;DHT22;17446;48.022;-1.740;2024-02-26T06:28:38;9.50;99.90
30694;DHT22;17446;48.022;-1.740;2024-02-26T06:31:06;9.50;99.90
30694;DHT22;17446;48.022;-1.740;2024-02-26T06:33:32;9.50;99.90
30694;DHT22;17446;48.022;-1.740;2024-02-26T06:35:57;9.50;99.90
30694;DHT22;17446;48.022;-1.740;2024-02-26T06:38:23;9.50;99.90
30694;DHT22;17446;48.022;-1.740;2024-02-26T06:40:48;9.50;99.90
30694;DHT22;17446;48.022;-1.740;2024-02-26T06:43:14;9.50;99.90
30694;DHT22;17446;48.022;-1.740;2024-02-26T06:45:40;9.50;99.90
30694;DHT22;17446;48.022;-1.740;2024-02-26T06:48:06;9.50;99.90
30694;DHT22;17446;48.022;-1.740;2024-02-26T06:50:31;9.50;99.90
30694;DHT22;17446;48.022;-1.740;2024-02-26T06:52:57;9.50;99.90
30694;DHT22;17446;48.022;-1.740;2024-02-26T06:55:22;9.40;99.90
30694;DHT22;17446;48.022;-1.740;2024-02-26T06:57:48;9.40;99.90
30694;DHT22;17446;48.022;-1.740;2024-02-26T07:00:14;9.40;99.90
30694;DHT22;17446;48.022;-1.740;2024-02-26T07:02:45;9.40;99.90
30694;DHT22;17446;48.022;-1.740;2024-02-26T07:05:10;9.40;99.90
30694;DHT22;17446;48.022;-1.740;2024-02-26T07:07:36;9.40;99.90
30694;DHT22;17446;48.022;-1.740;2024-02-26T07:10:02;9.40;99.90
30694;DHT22;17446;48.022;-1.740;2024-02-26T07:12:31;9.40;99.90
30694;DHT22;17446;48.022;-1.740;2024-02-26T07:14:56;9.40;99.90
30694;DHT22;17446;48.022;-1.740;2024-02-26T07:17:23;9.30;99.90
30694;DHT22;17446;48.022;-1.740;2024-02-26T07:19:49;9.30;99.90
30694;DHT22;17446;48.022;-1.740;2024-02-26T07:22:15;9.30;99.90
30694;DHT22;17446;48.022;-1.740;2024-02-26T07:24:41;9.30;99.90
30694;DHT22;17446;48.022;-1.740;2024-02-26T07:27:06;9.30;99.90
30694;DHT22;17446;48.022;-1.740;2024-02-26T07:29:32;9.20;99.90
30694;DHT22;17446;48.022;-1.740;2024-02-26T07:31:58;9.20;99.90
30694;DHT22;17446;48.022;-1.740;2024-02-26T07:34:23;9.20;99.90
30694;DHT22;17446;48.022;-1.740;2024-02-26T07:36:53;9.10;99.90
30694;DHT22;17446;48.022;-1.740;2024-02-26T07:39:19;9.10;99.90
30694;DHT22;17446;48.022;-1.740;2024-02-26T07:41:44;9.20;99.90
30694;DHT22;17446;48.022;-1.740;2024-02-26T07:44:12;9.20;99.90
30694;DHT22;17446;48.022;-1.740;2024-02-26T07:46:37;9.20;99.90
30694;DHT22;17446;48.022;-1.740;2024-02-26T07:49:03;9.20;99.90
30694;DHT22;17446;48.022;-1.740;2024-02-26T07:51:29;9.20;99.90
30694;DHT22;17446;48.022;-1.740;2024-02-26T07:53:54;9.20;99.90
30694;DHT22;17446;48.022;-1.740;2024-02-26T07:56:20;9.20;99.90
30694;DHT22;17446;48.022;-1.740;2024-02-26T07:58:45;9.20;99.90
30694;DHT22;17446;48.022;-1.740;2024-02-26T08:01:13;9.20;99.90
30694;DHT22;17446;48.022;-1.740;2024-02-26T08:03:39;9.10;99.90
30694;DHT22;17446;48.022;-1.740;2024-02-26T08:06:05;9.20;99.90
30694;DHT22;17446;48.022;-1.740;2024-02-26T08:08:31;9.20;99.90
30694;DHT22;17446;48.022;-1.740;2024-02-26T08:10:56;9.20;99.90
30694;DHT22;17446;48.022;-1.740;2024-02-26T08:13:22;9.20;99.90
30694;DHT22;17446;48.022;-1.740;2024-02-26T08:15:48;9.20;99.90
30694;DHT22;17446;48.022;-1.740;2024-02-26T08:18:13;9.20;99.90
30694;DHT22;17446;48.022;-1.740;2024-02-26T08:20:39;9.20;99.90
30694;DHT22;17446;48.022;-1.740;2024-02-26T08:23:04;9.20;99.90
30694;DHT22;17446;48.022;-1.740;2024-02-26T08:25:30;9.10;99.90
30694;DHT22;17446;48.022;-1.740;2024-02-26T08:27:56;9.10;99.90
30694;DHT22;17446;48.022;-1.740;2024-02-26T08:30:21;9.00;99.90
30694;DHT22;17446;48.022;-1.740;2024-02-26T08:32:47;9.00;99.90
30694;DHT22;17446;48.022;-1.740;2024-02-26T08:35:13;9.00;99.90
30694;DHT22;17446;48.022;-1.740;2024-02-26T08:37:39;9.00;99.90
30694;DHT22;17446;48.022;-1.740;2024-02-26T08:40:06;9.00;99.90
30694;DHT22;17446;48.022;-1.740;2024-02-26T08:42:31;9.00;99.90
30694;DHT22;17446;48.022;-1.740;2024-02-26T08:44:57;9.00;99.90
30694;DHT22;17446;48.022;-1.740;2024-02-26T08:47:25;9.00;99.90
30694;DHT22;17446;48.022;-1.740;2024-02-26T08:49:51;9.00;99.90
30694;DHT22;17446;48.022;-1.740;2024-02-26T08:52:16;8.90;99.90
30694;DHT22;17446;48.022;-1.740;2024-02-26T08:54:42;8.90;99.90
30694;DHT22;17446;48.022;-1.740;2024-02-26T08:57:08;8.90;99.90
30694;DHT22;17446;48.022;-1.740;2024-02-26T08:59:33;8.90;99.90
30694;DHT22;17446;48.022;-1.740;2024-02-26T09:01:59;8.90;99.90
30694;DHT22;17446;48.022;-1.740;2024-02-26T09:04:25;8.80;99.90
30694;DHT22;17446;48.022;-1.740;2024-02-26T09:06:52;8.90;99.90
30694;DHT22;17446;48.022;-1.740;2024-02-26T09:09:18;8.90;99.90
30694;DHT22;17446;48.022;-1.740;2024-02-26T09:11:43;8.90;99.90
30694;DHT22;17446;48.022;-1.740;2024-02-26T09:14:09;8.90;99.90
30694;DHT22;17446;48.022;-1.740;2024-02-26T09:16:35;8.90;99.90
30694;DHT22;17446;48.022;-1.740;2024-02-26T09:19:01;8.90;99.90
30694;DHT22;17446;48.022;-1.740;2024-02-26T09:21:28;8.90;99.90
30694;DHT22;17446;48.022;-1.740;2024-02-26T09:23:55;8.80;99.90
30694;DHT22;17446;48.022;-1.740;2024-02-26T09:26:20;8.80;99.90
30694;DHT22;17446;48.022;-1.740;2024-02-26T09:28:46;8.80;99.90
30694;DHT22;17446;48.022;-1.740;2024-02-26T09:31:12;8.80;99.90
30694;DHT22;17446;48.022;-1.740;2024-02-26T09:33:37;8.80;99.90
30694;DHT22;17446;48.022;-1.740;2024-02-26T09:36:04;8.80;99.90
30694;DHT22;17446;48.022;-1.740;2024-02-26T09:38:31;8.90;99.90
30694;DHT22;17446;48.022;-1.740;2024-02-26T09:41:02;8.80;99.90
30694;DHT22;17446;48.022;-1.740;2024-02-26T09:43:34;8.80;99.90
30694;DHT22;17446;48.022;-1.740;2024-02-26T09:46:01;8.80;99.90
30694;DHT22;17446;48.022;-1.740;2024-02-26T09:48:27;8.90;99.90
30694;DHT22;17446;48.022;-1.740;2024-02-26T09:50:53;8.80;99.90
30694;DHT22;17446;48.022;-1.740;2024-02-26T09:53:21;8.90;99.90
30694;DHT22;17446;48.022;-1.740;2024-02-26T09:55:47;8.90;99.90
30694;DHT22;17446;48.022;-1.740;2024-02-26T09:58:13;8.90;99.90
30694;DHT22;17446;48.022;-1.740;2024-02-26T10:00:46;8.90;99.90
30694;DHT22;17446;48.022;-1.740;2024-02-26T10:03:17;8.90;99.90
30694;DHT22;17446;48.022;-1.740;2024-02-26T10:05:44;8.90;99.90
30694;DHT22;17446;48.022;-1.740;2024-02-26T10:08:11;9.00;99.90
30694;DHT22;17446;48.022;-1.740;2024-02-26T10:10:39;9.10;99.90
30694;DHT22;17446;48.022;-1.740;2024-02-26T10:13:04;9.10;99.90
30694;DHT22;17446;48.022;-1.740;2024-02-26T10:15:36;9.10;99.90
30694;DHT22;17446;48.022;-1.740;2024-02-26T10:18:04;9.10;99.90
30694;DHT22;17446;48.022;-1.740;2024-02-26T10:20:31;9.10;99.90
30694;DHT22;17446;48.022;-1.740;2024-02-26T10:22:57;9.10;99.90
30694;DHT22;17446;48.022;-1.740;2024-02-26T10:25:23;9.20;99.90
30694;DHT22;17446;48.022;-1.740;2024-02-26T10:27:49;9.30;99.90
30694;DHT22;17446;48.022;-1.740;2024-02-26T10:30:19;9.40;99.90
30694;DHT22;17446;48.022;-1.740;2024-02-26T10:32:45;9.40;99.90
30694;DHT22;17446;48.022;-1.740;2024-02-26T10:35:15;9.40;99.90
30694;DHT22;17446;48.022;-1.740;2024-02-26T10:37:41;9.50;99.90
30694;DHT22;17446;48.022;-1.740;2024-02-26T10:40:13;9.50;99.90
30694;DHT22;17446;48.022;-1.740;2024-02-26T10:42:40;9.50;99.90
30694;DHT22;17446;48.022;-1.740;2024-02-26T10:45:07;9.50;99.90
30694;DHT22;17446;48.022;-1.740;2024-02-26T10:47:37;9.50;99.90
30694;DHT22;17446;48.022;-1.740;2024-02-26T10:50:05;9.60;99.90
30694;DHT22;17446;48.022;-1.740;2024-02-26T10:52:35;9.60;99.90
30694;DHT22;17446;48.022;-1.740;2024-02-26T10:55:05;9.60;99.90
30694;DHT22;17446;48.022;-1.740;2024-02-26T10:57:34;9.60;99.90
30694;DHT22;17446;48.022;-1.740;2024-02-26T11:00:03;9.60;99.90
30694;DHT22;17446;48.022;-1.740;2024-02-26T11:02:36;9.60;99.90
30694;DHT22;17446;48.022;-1.740;2024-02-26T11:05:05;9.60;99.90
30694;DHT22;17446;48.022;-1.740;2024-02-26T11:07:32;9.60;99.90
30694;DHT22;17446;48.022;-1.740;2024-02-26T11:09:59;9.50;99.90
30694;DHT22;17446;48.022;-1.740;2024-02-26T11:12:27;9.50;99.90
30694;DHT22;17446;48.022;-1.740;2024-02-26T11:14:55;9.40;99.90
30694;DHT22;17446;48.022;-1.740;2024-02-26T11:17:22;9.30;99.90
30694;DHT22;17446;48.022;-1.740;2024-02-26T11:19:50;9.30;99.90
30694;DHT22;17446;48.022;-1.740;2024-02-26T11:22:16;9.30;99.90
30694;DHT22;17446;48.022;-1.740;2024-02-26T11:24:43;9.30;99.90
30694;DHT22;17446;48.022;-1.740;2024-02-26T11:27:10;9.30;99.90
30694;DHT22;17446;48.022;-1.740;2024-02-26T11:29:52;9.20;99.90
30694;DHT22;17446;48.022;-1.740;2024-02-26T11:32:18;9.20;99.90
30694;DHT22;17446;48.022;-1.740;2024-02-26T11:34:44;9.20;99.90
30694;DHT22;17446;48.022;-1.740;2024-02-26T11:37:19;9.30;99.90
30694;DHT22;17446;48.022;-1.740;2024-02-26T11:39:45;9.20;99.90
30694;DHT22;17446;48.022;-1.740;2024-02-26T11:42:14;9.20;99.90
30694;DHT22;17446;48.022;-1.740;2024-02-26T11:44:40;9.10;99.90
30694;DHT22;17446;48.022;-1.740;2024-02-26T11:47:18;9.10;99.90
30694;DHT22;17446;48.022;-1.740;2024-02-26T11:49:44;9.10;99.90
30694;DHT22;17446;48.022;-1.740;2024-02-26T11:52:10;9.00;99.90
30694;DHT22;17446;48.022;-1.740;2024-02-26T11:54:49;9.10;99.90
30694;DHT22;17446;48.022;-1.740;2024-02-26T11:57:38;9.10;99.90
30694;DHT22;17446;48.022;-1.740;2024-02-26T12:00:11;9.20;99.90
30694;DHT22;17446;48.022;-1.740;2024-02-26T12:02:47;9.10;99.90
30694;DHT22;17446;48.022;-1.740;2024-02-26T12:05:20;9.20;99.90
30694;DHT22;17446;48.022;-1.740;2024-02-26T12:07:53;9.20;99.90
30694;DHT22;17446;48.022;-1.740;2024-02-26T12:10:28;9.20;99.90
30694;DHT22;17446;48.022;-1.740;2024-02-26T12:13:00;9.20;99.90
30694;DHT22;17446;48.022;-1.740;2024-02-26T12:15:32;9.30;99.90
30694;DHT22;17446;48.022;-1.740;2024-02-26T12:18:02;9.20;99.90
30694;DHT22;17446;48.022;-1.740;2024-02-26T12:20:28;9.20;99.90
30694;DHT22;17446;48.022;-1.740;2024-02-26T12:22:54;9.10;99.90
30694;DHT22;17446;48.022;-1.740;2024-02-26T12:25:26;9.10;99.90
30694;DHT22;17446;48.022;-1.740;2024-02-26T12:27:55;9.20;99.90
30694;DHT22;17446;48.022;-1.740;2024-02-26T12:30:22;9.10;99.90
30694;DHT22;17446;48.022;-1.740;2024-02-26T12:32:51;9.10;99.90
30694;DHT22;17446;48.022;-1.740;2024-02-26T12:35:17;9.20;99.90
30694;DHT22;17446;48.022;-1.740;2024-02-26T12:37:43;9.20;99.90
30694;DHT22;17446;48.022;-1.740;2024-02-26T12:40:10;9.20;99.90
30694;DHT22;17446;48.022;-1.740;2024-02-26T12:42:36;9.20;99.90
30694;DHT22;17446;48.022;-1.740;2024-02-26T12:45:07;9.10;99.90
30694;DHT22;17446;48.022;-1.740;2024-02-26T12:47:44;9.10;99.90
30694;DHT22;17446;48.022;-1.740;2024-02-26T12:50:11;9.00;99.90
30694;DHT22;17446;48.022;-1.740;2024-02-26T12:52:43;9.00;99.90
30694;DHT22;17446;48.022;-1.740;2024-02-26T12:55:11;9.00;99.90
30694;DHT22;17446;48.022;-1.740;2024-02-26T12:57:39;9.00;99.90
30694;DHT22;17446;48.022;-1.740;2024-02-26T13:00:06;8.90;99.90
30694;DHT22;17446;48.022;-1.740;2024-02-26T13:02:35;8.90;99.90
30694;DHT22;17446;48.022;-1.740;2024-02-26T13:05:02;8.80;99.90
30694;DHT22;17446;48.022;-1.740;2024-02-26T13:07:28;8.80;99.90
30694;DHT22;17446;48.022;-1.740;2024-02-26T13:09:55;8.80;99.90
30694;DHT22;17446;48.022;-1.740;2024-02-26T13:12:21;8.80;99.90
30694;DHT22;17446;48.022;-1.740;2024-02-26T13:14:46;8.80;99.90
30694;DHT22;17446;48.022;-1.740;2024-02-26T13:17:12;8.80;99.90
30694;DHT22;17446;48.022;-1.740;2024-02-26T13:19:49;8.80;99.90
30694;DHT22;17446;48.022;-1.740;2024-02-26T13:22:14;8.80;99.90
30694;DHT22;17446;48.022;-1.740;2024-02-26T13:24:40;8.80;99.90
30694;DHT22;17446;48.022;-1.740;2024-02-26T13:27:05;8.80;99.90
30694;DHT22;17446;48.022;-1.740;2024-02-26T13:29:31;8.90;99.90
30694;DHT22;17446;48.022;-1.740;2024-02-26T13:32:00;8.90;99.90
30694;DHT22;17446;48.022;-1.740;2024-02-26T13:34:29;8.80;99.90
30694;DHT22;17446;48.022;-1.740;2024-02-26T13:36:56;8.80;99.90
30694;DHT22;17446;48.022;-1.740;2024-02-26T13:39:26;8.80;99.90
30694;DHT22;17446;48.022;-1.740;2024-02-26T13:41:52;8.80;99.90
30694;DHT22;17446;48.022;-1.740;2024-02-26T13:44:20;8.80;99.90
30694;DHT22;17446;48.022;-1.740;2024-02-26T13:46:46;8.80;99.90
30694;DHT22;17446;48.022;-1.740;2024-02-26T13:49:11;8.80;99.90
30694;DHT22;17446;48.022;-1.740;2024-02-26T13:51:40;8.90;99.90
30694;DHT22;17446;48.022;-1.740;2024-02-26T13:54:06;8.90;99.90
30694;DHT22;17446;48.022;-1.740;2024-02-26T13:56:32;8.80;99.90
30694;DHT22;17446;48.022;-1.740;2024-02-26T13:58:58;8.80;99.90
30694;DHT22;17446;48.022;-1.740;2024-02-26T14:01:25;8.80;99.90
30694;DHT22;17446;48.022;-1.740;2024-02-26T14:03:50;8.90;99.90
30694;DHT22;17446;48.022;-1.740;2024-02-26T14:06:16;8.90;99.90
30694;DHT22;17446;48.022;-1.740;2024-02-26T14:08:42;8.90;99.90
30694;DHT22;17446;48.022;-1.740;2024-02-26T14:11:07;8.90;99.90
30694;DHT22;17446;48.022;-1.740;2024-02-26T14:13:33;8.90;99.90
30694;DHT22;17446;48.022;-1.740;2024-02-26T14:15:59;9.00;99.90
30694;DHT22;17446;48.022;-1.740;2024-02-26T14:18:25;9.00;99.90
30694;DHT22;17446;48.022;-1.740;2024-02-26T14:20:50;9.00;99.90
30694;DHT22;17446;48.022;-1.740;2024-02-26T14:23:16;9.00;99.90
30694;DHT22;17446;48.022;-1.740;2024-02-26T14:25:42;8.90;99.90
30694;DHT22;17446;48.022;-1.740;2024-02-26T14:28:08;8.90;99.90
30694;DHT22;17446;48.022;-1.740;2024-02-26T14:30:34;8.90;99.90
30694;DHT22;17446;48.022;-1.740;2024-02-26T14:33:00;9.00;99.90
30694;DHT22;17446;48.022;-1.740;2024-02-26T14:35:25;9.00;99.90
30694;DHT22;17446;48.022;-1.740;2024-02-26T14:37:51;8.90;99.90
30694;DHT22;17446;48.022;-1.740;2024-02-26T14:40:17;8.90;99.90
30694;DHT22;17446;48.022;-1.740;2024-02-26T14:42:44;8.90;99.90
30694;DHT22;17446;48.022;-1.740;2024-02-26T14:45:10;8.90;99.90
30694;DHT22;17446;48.022;-1.740;2024-02-26T14:47:36;9.00;99.90
30694;DHT22;17446;48.022;-1.740;2024-02-26T14:50:02;9.00;99.90
30694;DHT22;17446;48.022;-1.740;2024-02-26T14:52:28;9.00;99.90
30694;DHT22;17446;48.022;-1.740;2024-02-26T14:54:53;9.00;99.90
30694;DHT22;17446;48.022;-1.740;2024-02-26T14:57:19;8.90;99.90
30694;DHT22;17446;48.022;-1.740;2024-02-26T14:59:45;9.00;99.90
30694;DHT22;17446;48.022;-1.740;2024-02-26T15:02:10;9.00;99.90
30694;DHT22;17446;48.022;-1.740;2024-02-26T15:04:36;9.00;99.90
30694;DHT22;17446;48.022;-1.740;2024-02-26T15:07:03;9.10;99.90
30694;DHT22;17446;48.022;-1.740;2024-02-26T15:09:29;9.10;99.90
30694;DHT22;17446;48.022;-1.740;2024-02-26T15:11:54;9.10;99.90
30694;DHT22;17446;48.022;-1.740;2024-02-26T15:14:20;9.20;99.90
30694;DHT22;17446;48.022;-1.740;2024-02-26T15:16:46;9.10;99.90
30694;DHT22;17446;48.022;-1.740;2024-02-26T15:19:11;9.00;99.90
30694;DHT22;17446;48.022;-1.740;2024-02-26T15:21:44;9.00;99.90